createdAt,value
2022-09-25T00:01:11.693Z,13.70
2022-09-25T00:03:39.596Z,13.68
2022-09-25T00:06:08.961Z,13.61
2022-09-25T00:08:36.864Z,13.64
2022-09-25T00:11:08.127Z,13.62
2022-09-25T00:13:35.521Z,13.66
2022-09-25T00:16:04.564Z,13.62
2022-09-25T00:18:51.105Z,13.45
2022-09-25T00:21:18.558Z,13.45
2022-09-25T00:23:46.378Z,13.45
2022-09-25T00:26:15.268Z,13.36
2022-09-25T00:28:43.865Z,13.34
2022-09-25T00:31:15.090Z,13.35
2022-09-25T00:33:43.842Z,13.22
2022-09-25T00:36:11.907Z,13.22
2022-09-25T00:38:39.545Z,13.13
2022-09-25T00:41:08.174Z,13.16
2022-09-25T00:43:39.321Z,13.05
2022-09-25T00:46:10.691Z,12.94
2022-09-25T00:48:38.841Z,12.79
2022-09-25T00:51:07.484Z,12.76
2022-09-25T00:53:37.348Z,12.53
2022-09-25T00:56:05.993Z,12.47
2022-09-25T00:58:34.641Z,12.42
2022-09-25T01:01:02.112Z,12.40
2022-09-25T01:03:29.667Z,12.45
2022-09-25T01:06:00.137Z,12.44
2022-09-25T01:08:29.718Z,12.43
2022-09-25T01:10:57.207Z,12.49
2022-09-25T01:13:24.630Z,12.52
2022-09-25T01:15:59.279Z,12.57
2022-09-25T01:18:35.370Z,12.60
2022-09-25T01:21:14.640Z,12.67
2022-09-25T01:23:59.417Z,12.73
2022-09-25T01:26:44.880Z,12.85
2022-09-25T01:29:15.962Z,12.88
2022-09-25T01:31:48.776Z,12.90
2022-09-25T01:34:19.958Z,12.95
2022-09-25T01:36:49.970Z,12.95
2022-09-25T01:39:21.758Z,12.93
2022-09-25T01:41:55.718Z,12.96
2022-09-25T01:44:29.065Z,12.95
2022-09-25T01:47:03.747Z,12.93
2022-09-25T01:49:33.373Z,12.85
2022-09-25T01:52:02.669Z,12.82
2022-09-25T01:54:32.085Z,12.84
2022-09-25T01:57:02.553Z,12.86
2022-09-25T01:59:35.435Z,12.88
2022-09-25T02:02:04.745Z,12.92
2022-09-25T02:04:35.467Z,12.86
2022-09-25T02:07:36.316Z,12.82
2022-09-25T02:10:09.033Z,13.02
2022-09-25T02:12:43.965Z,13.09
2022-09-25T02:15:14.690Z,13.03
2022-09-25T02:18:04.026Z,13.01
2022-09-25T02:20:34.071Z,13.14
2022-09-25T02:23:07.504Z,13.22
2022-09-25T02:25:38.409Z,13.28
2022-09-25T02:28:05.812Z,13.33
2022-09-25T02:30:34.626Z,13.31
2022-09-25T02:33:02.045Z,13.23
2022-09-25T02:35:29.445Z,13.32
2022-09-25T02:37:57.588Z,13.32
2022-09-25T02:40:45.138Z,13.36
2022-09-25T02:43:23.444Z,13.39
2022-09-25T02:46:00.623Z,13.34
2022-09-25T02:48:35.473Z,13.47
2022-09-25T02:51:09.841Z,13.46
2022-09-25T02:53:39.779Z,13.49
2022-09-25T02:56:12.502Z,13.54
2022-09-25T02:58:42.710Z,13.40
2022-09-25T03:01:13.879Z,13.41
2022-09-25T03:03:42.370Z,13.34
2022-09-25T03:06:11.085Z,13.30
2022-09-25T03:08:41.326Z,13.26
2022-09-25T03:11:10.092Z,13.22
2022-09-25T03:13:37.875Z,13.25
2022-09-25T03:16:08.082Z,13.25
2022-09-25T03:18:37.865Z,13.28
2022-09-25T03:21:05.690Z,13.28
2022-09-25T03:23:33.305Z,13.30
2022-09-25T03:26:00.802Z,13.31
2022-09-25T03:28:28.452Z,13.30
2022-09-25T03:31:00.589Z,13.34
2022-09-25T03:33:29.346Z,13.35
2022-09-25T03:36:06.690Z,13.13
2022-09-25T03:38:34.182Z,13.20
2022-09-25T03:41:01.861Z,13.28
2022-09-25T03:43:33.409Z,13.39
2022-09-25T03:46:00.852Z,13.41
2022-09-25T03:48:28.279Z,13.37
2022-09-25T03:50:56.142Z,13.44
2022-09-25T03:53:25.236Z,13.38
2022-09-25T03:55:52.586Z,13.44
2022-09-25T03:58:20.394Z,13.46
2022-09-25T04:00:48.049Z,13.46
2022-09-25T04:03:15.849Z,13.26
2022-09-25T04:05:44.506Z,13.18
2022-09-25T04:08:11.854Z,13.11
2022-09-25T04:10:40.576Z,12.95
2022-09-25T04:13:09.051Z,13.05
2022-09-25T04:15:36.377Z,13.12
2022-09-25T04:18:06.232Z,13.06
2022-09-25T04:20:33.792Z,13.21
2022-09-25T04:23:01.192Z,13.25
2022-09-25T04:25:28.545Z,13.30
2022-09-25T04:27:58.245Z,13.25
2022-09-25T04:30:26.649Z,13.30
2022-09-25T04:33:11.781Z,13.21
2022-09-25T04:35:39.179Z,13.18
2022-09-25T04:38:06.524Z,13.22
2022-09-25T04:40:34.317Z,13.11
2022-09-25T04:43:04.670Z,12.97
2022-09-25T04:45:34.825Z,13.04
2022-09-25T04:48:03.109Z,13.02
2022-09-25T04:50:31.155Z,12.76
2022-09-25T04:53:02.870Z,12.83
2022-09-25T04:55:30.246Z,12.81
2022-09-25T04:57:59.879Z,12.75
2022-09-25T05:00:30.350Z,12.79
2022-09-25T05:02:58.187Z,12.78
2022-09-25T05:05:30.426Z,12.67
2022-09-25T05:07:59.452Z,12.56
2022-09-25T05:10:28.428Z,12.55
2022-09-25T05:12:56.381Z,12.53
2022-09-25T05:15:23.768Z,12.57
2022-09-25T05:18:00.338Z,12.56
2022-09-25T05:20:27.745Z,12.43
2022-09-25T05:22:56.213Z,12.42
2022-09-25T05:25:27.121Z,12.48
2022-09-25T05:27:55.727Z,12.55
2022-09-25T05:30:23.202Z,12.54
2022-09-25T05:32:52.362Z,12.48
2022-09-25T05:35:21.160Z,12.53
2022-09-25T05:37:48.786Z,12.47
2022-09-25T05:40:18.108Z,12.60
2022-09-25T05:42:45.830Z,12.58
2022-09-25T05:45:13.288Z,12.70
2022-09-25T05:47:40.717Z,12.73
2022-09-25T05:50:11.441Z,12.82
2022-09-25T05:52:38.950Z,12.92
2022-09-25T05:55:08.031Z,13.03
2022-09-25T05:57:36.442Z,13.00
2022-09-25T06:00:05.681Z,13.08
2022-09-25T06:02:39.256Z,13.12
2022-09-25T06:05:07.112Z,13.15
2022-09-25T06:07:35.850Z,13.09
2022-09-25T06:10:03.367Z,13.00
2022-09-25T06:12:30.913Z,12.93
2022-09-25T06:14:58.374Z,13.06
2022-09-25T06:17:25.768Z,13.14
2022-09-25T06:19:53.403Z,13.20
2022-09-25T06:22:20.757Z,13.15
2022-09-25T06:24:49.560Z,13.07
2022-09-25T06:27:16.978Z,13.07
2022-09-25T06:29:44.522Z,12.96
2022-09-25T06:32:11.899Z,12.79
2022-09-25T06:34:39.265Z,12.67
2022-09-25T06:37:06.585Z,12.64
2022-09-25T06:39:34.031Z,12.36
2022-09-25T06:42:03.009Z,12.22
2022-09-25T06:44:31.786Z,12.17
2022-09-25T06:46:59.694Z,12.11
2022-09-25T06:49:27.166Z,12.06
2022-09-25T06:51:54.713Z,12.12
2022-09-25T06:54:22.142Z,12.13
2022-09-25T06:56:50.272Z,12.10
2022-09-25T06:59:19.131Z,12.08
2022-09-25T07:01:46.576Z,12.11
2022-09-25T07:04:13.443Z,12.23
2022-09-25T07:06:40.874Z,12.43
2022-09-25T07:09:08.379Z,12.50
2022-09-25T07:11:38.088Z,12.62
2022-09-25T07:14:05.480Z,12.87
2022-09-25T07:16:34.597Z,12.84
2022-09-25T07:19:03.929Z,12.84
2022-09-25T07:21:32.129Z,13.06
2022-09-25T07:23:59.733Z,13.14
2022-09-25T07:26:29.233Z,13.05
2022-09-25T07:28:58.193Z,13.14
2022-09-25T07:31:27.528Z,13.21
2022-09-25T07:33:56.462Z,13.34
2022-09-25T07:39:06.958Z,13.42
2022-09-25T07:41:34.537Z,13.48
2022-09-25T07:44:18.166Z,13.62
2022-09-25T07:46:49.659Z,14.06
2022-09-25T07:49:18.622Z,14.95
2022-09-25T07:51:46.023Z,15.74
2022-09-25T07:54:13.552Z,16.37
2022-09-25T07:56:41.073Z,16.31
2022-09-25T07:59:08.630Z,16.16
2022-09-25T08:01:39.668Z,16.15
2022-09-25T08:04:10.199Z,15.97
2022-09-25T08:06:39.173Z,15.68
2022-09-25T08:09:10.361Z,15.63
2022-09-25T08:11:38.274Z,15.65
2022-09-25T08:14:05.723Z,15.49
2022-09-25T08:16:33.094Z,15.43
2022-09-25T08:19:00.482Z,16.04
2022-09-25T08:21:29.975Z,16.21
2022-09-25T08:23:58.656Z,15.77
2022-09-25T08:26:28.068Z,15.91
2022-09-25T08:28:56.729Z,15.85
2022-09-25T08:31:26.693Z,15.90
2022-09-25T08:33:55.401Z,16.13
2022-09-25T08:36:23.605Z,16.18
2022-09-25T08:38:51.007Z,16.24
2022-09-25T08:41:23.729Z,15.95
2022-09-25T08:43:57.880Z,15.69
2022-09-25T08:46:47.393Z,15.83
2022-09-25T08:49:15.477Z,15.82
2022-09-25T08:51:45.277Z,15.85
2022-09-25T08:54:17.570Z,16.15
2022-09-25T08:56:47.574Z,16.56
2022-09-25T08:59:23.619Z,16.70
2022-09-25T09:01:53.282Z,16.88
2022-09-25T09:04:26.648Z,16.68
2022-09-25T09:07:24.513Z,16.46
2022-09-25T09:09:46.867Z,16.48
2022-09-25T09:12:18.079Z,16.50
2022-09-25T09:14:46.650Z,16.37
2022-09-25T09:17:18.147Z,16.81
2022-09-25T09:19:48.238Z,17.52
2022-09-25T09:22:17.966Z,17.71
2022-09-25T09:24:54.870Z,17.39
2022-09-25T09:27:33.710Z,17.51
2022-09-25T09:30:11.355Z,16.89
2022-09-25T09:32:50.305Z,16.86
2022-09-25T09:35:31.235Z,16.68
2022-09-25T09:38:08.043Z,16.37
2022-09-25T09:40:57.102Z,16.88
2022-09-25T09:43:44.783Z,17.29
2022-09-25T09:46:18.478Z,17.98
2022-09-25T09:48:54.329Z,18.04
2022-09-25T09:51:25.245Z,18.44
2022-09-25T09:53:55.191Z,19.07
2022-09-25T09:56:25.427Z,19.61
2022-09-25T09:58:56.586Z,19.46
2022-09-25T10:01:40.992Z,18.92
2022-09-25T10:04:11.268Z,18.28
2022-09-25T10:06:40.931Z,18.05
2022-09-25T10:09:11.246Z,18.04
2022-09-25T10:11:40.641Z,17.96
2022-09-25T10:14:15.759Z,17.98
2022-09-25T10:16:43.215Z,17.96
2022-09-25T10:19:14.594Z,17.90
2022-09-25T10:21:44.453Z,17.98
2022-09-25T10:24:46.898Z,18.21
2022-09-25T10:27:22.809Z,18.43
2022-09-25T10:30:04.703Z,18.57
2022-09-25T10:32:34.955Z,18.87
2022-09-25T10:35:02.567Z,19.07
2022-09-25T10:37:34.766Z,19.09
2022-09-25T10:40:04.911Z,19.26
2022-09-25T10:42:38.899Z,19.00
2022-09-25T10:45:30.039Z,18.93
2022-09-25T10:48:15.106Z,19.27
2022-09-25T10:50:43.014Z,20.21
2022-09-25T10:53:28.140Z,20.95
2022-09-25T10:56:01.771Z,21.28
2022-09-25T10:58:34.740Z,21.01
2022-09-25T11:01:04.500Z,19.12
2022-09-25T11:03:34.187Z,18.53
2022-09-25T11:06:03.842Z,18.12
2022-09-25T11:08:34.320Z,17.27
2022-09-25T11:11:03.181Z,17.16
2022-09-25T11:13:36.920Z,17.15
2022-09-25T11:16:10.179Z,17.22
2022-09-25T11:18:40.889Z,17.14
2022-09-25T11:21:20.590Z,17.19
2022-09-25T11:24:05.070Z,17.44
2022-09-25T11:26:35.452Z,17.42
2022-09-25T11:29:11.147Z,17.65
2022-09-25T11:31:44.110Z,18.15
2022-09-25T11:34:20.285Z,18.56
2022-09-25T11:36:50.146Z,18.88
2022-09-25T11:39:40.954Z,18.97
2022-09-25T11:42:13.541Z,19.04
2022-09-25T11:44:45.006Z,18.93
2022-09-25T11:47:17.319Z,18.79
2022-09-25T11:49:49.718Z,18.14
2022-09-25T11:52:32.604Z,17.76
2022-09-25T11:55:14.727Z,17.38
2022-09-25T11:57:52.688Z,17.56
2022-09-25T12:00:23.759Z,17.36
2022-09-25T12:03:10.213Z,17.56
2022-09-25T12:05:51.710Z,17.55
2022-09-25T12:08:29.467Z,17.60
2022-09-25T12:11:01.664Z,17.98
2022-09-25T12:13:39.128Z,18.50
2022-09-25T12:16:11.966Z,18.80
2022-09-25T12:18:51.667Z,19.21
2022-09-25T12:21:25.682Z,19.70
2022-09-25T12:23:57.917Z,19.95
2022-09-25T12:26:29.930Z,19.50
2022-09-25T12:29:07.965Z,19.40
2022-09-25T12:31:44.132Z,19.39
2022-09-25T12:34:18.558Z,18.49
2022-09-25T12:36:48.022Z,18.42
2022-09-25T12:39:27.020Z,18.08
2022-09-25T12:41:57.010Z,18.00
2022-09-25T12:44:27.925Z,18.06
2022-09-25T12:46:59.277Z,18.34
2022-09-25T12:49:30.132Z,18.75
2022-09-25T12:52:00.946Z,19.11
2022-09-25T12:54:32.782Z,19.09
2022-09-25T12:57:03.370Z,19.48
2022-09-25T12:59:36.024Z,19.71
2022-09-25T13:02:07.030Z,20.07
2022-09-25T13:04:47.386Z,20.53
2022-09-25T13:07:18.153Z,20.31
2022-09-25T13:09:47.340Z,19.99
2022-09-25T13:12:22.468Z,19.85
2022-09-25T13:14:53.179Z,20.08
2022-09-25T13:17:20.805Z,20.04
2022-09-25T13:19:51.271Z,19.64
2022-09-25T13:22:24.155Z,19.31
2022-09-25T13:24:53.563Z,18.57
2022-09-25T13:27:22.737Z,18.50
2022-09-25T13:29:56.885Z,18.15
2022-09-25T13:32:27.342Z,17.52
2022-09-25T13:34:57.870Z,17.62
2022-09-25T13:37:28.600Z,17.68
2022-09-25T13:40:13.880Z,18.02
2022-09-25T13:42:44.119Z,18.27
2022-09-25T13:45:32.170Z,18.33
2022-09-25T13:48:07.875Z,18.35
2022-09-25T13:50:46.900Z,18.47
2022-09-25T13:53:23.642Z,18.33
2022-09-25T13:56:27.557Z,17.86
2022-09-25T13:59:37.945Z,17.38
2022-09-25T14:02:44.430Z,17.38
2022-09-25T14:05:17.046Z,17.36
2022-09-25T14:07:46.877Z,17.05
2022-09-25T14:10:14.529Z,16.74
2022-09-25T14:12:47.938Z,16.45
2022-09-25T14:15:21.767Z,16.38
2022-09-25T14:17:52.276Z,16.45
2022-09-25T14:20:28.363Z,16.52
2022-09-25T14:22:58.957Z,16.36
2022-09-25T14:25:32.824Z,16.44
2022-09-25T14:28:01.086Z,16.62
2022-09-25T14:30:30.154Z,16.91
2022-09-25T14:33:09.548Z,17.29
2022-09-25T14:35:41.378Z,17.57
2022-09-25T14:38:23.518Z,17.81
2022-09-25T14:41:04.164Z,17.64
2022-09-25T14:43:45.311Z,17.63
2022-09-25T14:46:19.775Z,17.66
2022-09-25T14:48:49.883Z,17.85
2022-09-25T14:51:29.778Z,17.95
2022-09-25T14:54:03.169Z,17.89
2022-09-25T14:56:34.213Z,18.02
2022-09-25T14:59:11.094Z,18.04
2022-09-25T15:01:46.191Z,18.11
2022-09-25T15:04:13.661Z,17.67
2022-09-25T15:06:41.177Z,17.68
2022-09-25T15:09:28.969Z,17.73
2022-09-25T15:11:56.614Z,17.66
2022-09-25T15:14:24.026Z,17.69
2022-09-25T15:17:09.273Z,17.61
2022-09-25T15:19:39.953Z,17.78
2022-09-25T15:22:10.333Z,17.85
2022-09-25T15:24:46.882Z,17.87
2022-09-25T15:27:16.936Z,17.88
2022-09-25T15:29:46.633Z,18.04
2022-09-25T15:32:18.268Z,18.21
2022-09-25T15:34:45.958Z,18.19
2022-09-25T15:37:18.719Z,18.34
2022-09-25T15:39:47.562Z,18.65
2022-09-25T15:42:15.476Z,18.96
2022-09-25T15:44:43.053Z,19.01
2022-09-25T15:47:47.937Z,18.65
2022-09-25T15:50:21.736Z,18.60
2022-09-25T15:52:51.063Z,18.41
2022-09-25T15:55:20.450Z,18.35
2022-09-25T15:57:48.008Z,18.23
2022-09-25T16:00:37.504Z,18.05
2022-09-25T16:03:32.819Z,17.57
2022-09-25T16:06:03.069Z,17.15
2022-09-25T16:08:31.951Z,16.91
2022-09-25T16:11:16.679Z,16.53
2022-09-25T16:13:48.422Z,16.08
2022-09-25T16:16:21.985Z,15.97
2022-09-25T16:18:51.084Z,15.35
2022-09-25T16:21:22.395Z,15.36
2022-09-25T16:23:56.518Z,15.41
2022-09-25T16:26:27.438Z,15.41
2022-09-25T16:29:02.834Z,15.41
2022-09-25T16:31:30.634Z,15.47
2022-09-25T16:34:00.394Z,15.47
2022-09-25T16:36:28.967Z,15.40
2022-09-25T16:39:21.736Z,15.23
2022-09-25T16:41:51.051Z,14.80
2022-09-25T16:44:20.854Z,14.38
2022-09-25T16:47:06.043Z,14.42
2022-09-25T16:49:33.994Z,14.36
2022-09-25T16:52:04.974Z,14.07
2022-09-25T16:54:33.777Z,13.76
2022-09-25T16:57:04.041Z,13.57
2022-09-25T16:59:31.491Z,13.17
2022-09-25T17:02:04.736Z,13.12
2022-09-25T17:04:32.333Z,13.09
2022-09-25T17:06:59.807Z,12.94
2022-09-25T17:09:29.084Z,12.75
2022-09-25T17:12:01.198Z,12.53
2022-09-25T17:14:29.886Z,12.23
2022-09-25T17:16:57.857Z,11.98
2022-09-25T17:19:27.838Z,11.98
2022-09-25T17:21:56.030Z,11.93
2022-09-25T17:24:26.648Z,11.58
2022-09-25T17:26:54.425Z,11.34
2022-09-25T17:29:22.071Z,10.97
2022-09-25T17:31:50.989Z,11.23
2022-09-25T17:34:20.943Z,11.19
2022-09-25T17:36:48.421Z,11.18
2022-09-25T17:39:15.841Z,11.17
2022-09-25T17:41:43.307Z,11.12
2022-09-25T17:44:14.011Z,10.98
2022-09-25T17:46:41.441Z,10.94
2022-09-25T17:49:11.209Z,10.88
2022-09-25T17:51:39.396Z,10.86
2022-09-25T17:54:06.908Z,10.78
2022-09-25T17:56:35.233Z,10.74
2022-09-25T17:59:03.560Z,10.65
2022-09-25T18:01:38.934Z,10.46
2022-09-25T18:04:19.876Z,10.55
2022-09-25T18:06:47.825Z,10.47
2022-09-25T18:09:15.264Z,10.41
2022-09-25T18:11:44.155Z,10.45
2022-09-25T18:14:12.409Z,10.44
2022-09-25T18:16:41.589Z,10.55
2022-09-25T18:19:33.587Z,10.53
2022-09-25T18:22:21.301Z,10.39
2022-09-25T18:24:51.025Z,10.44
2022-09-25T18:27:18.479Z,10.41
2022-09-25T18:29:47.183Z,10.20
2022-09-25T18:32:14.668Z,10.26
2022-09-25T18:34:43.782Z,10.19
2022-09-25T18:37:11.628Z,9.98
2022-09-25T18:39:39.253Z,9.90
2022-09-25T18:42:06.950Z,9.90
2022-09-25T18:44:42.331Z,9.91
2022-09-25T18:47:10.864Z,9.57
2022-09-25T18:49:38.395Z,9.61
2022-09-25T18:52:07.828Z,9.84
2022-09-25T18:54:35.402Z,9.96
2022-09-25T18:57:03.239Z,9.87
2022-09-25T18:59:30.847Z,9.90
2022-09-25T19:01:58.745Z,9.94
2022-09-25T19:04:26.898Z,9.95
2022-09-25T19:06:54.433Z,10.00
2022-09-25T19:09:24.304Z,9.91
2022-09-25T19:11:51.909Z,9.84
2022-09-25T19:14:19.870Z,9.80
2022-09-25T19:16:48.219Z,9.78
2022-09-25T19:19:15.794Z,9.68
2022-09-25T19:21:44.649Z,9.51
2022-09-25T19:24:12.768Z,9.36
2022-09-25T19:26:42.660Z,9.03
2022-09-25T19:29:10.335Z,8.93
2022-09-25T19:31:38.255Z,8.95
2022-09-25T19:34:05.859Z,9.01
2022-09-25T19:36:34.786Z,9.08
2022-09-25T19:39:02.947Z,8.96
2022-09-25T19:41:31.888Z,9.07
2022-09-25T19:44:05.765Z,9.06
2022-09-25T19:46:35.836Z,9.05
2022-09-25T19:49:03.262Z,9.00
2022-09-25T19:51:30.770Z,8.89
2022-09-25T19:53:58.340Z,8.72
2022-09-25T19:56:26.425Z,8.73
2022-09-25T19:58:53.882Z,8.75
2022-09-25T20:01:24.255Z,8.72
2022-09-25T20:03:51.834Z,8.70
2022-09-25T20:06:19.574Z,8.77
2022-09-25T20:08:47.189Z,8.90
2022-09-25T20:11:16.821Z,8.87
2022-09-25T20:13:44.559Z,8.76
2022-09-25T20:16:14.047Z,8.63
2022-09-25T20:18:43.922Z,8.57
2022-09-25T20:21:13.795Z,8.66
2022-09-25T20:23:41.290Z,8.63
2022-09-25T20:26:10.574Z,8.61
2022-09-25T20:28:38.633Z,8.54
2022-09-25T20:31:07.384Z,8.68
2022-09-25T20:33:36.178Z,8.60
2022-09-25T20:36:07.297Z,8.64
2022-09-25T20:38:36.822Z,8.63
2022-09-25T20:41:06.332Z,8.63
2022-09-25T20:43:34.682Z,8.49
2022-09-25T20:46:04.293Z,8.52
2022-09-25T20:48:31.946Z,8.57
2022-09-25T20:50:59.422Z,8.47
2022-09-25T20:53:28.245Z,8.48
2022-09-25T20:55:56.804Z,8.31
2022-09-25T20:58:24.350Z,8.30
2022-09-25T21:00:51.930Z,8.33
2022-09-25T21:03:19.333Z,8.41
2022-09-25T21:05:46.920Z,8.44
2022-09-25T21:08:14.501Z,8.39
2022-09-25T21:10:43.199Z,8.52
2022-09-25T21:13:10.778Z,8.56
2022-09-25T21:15:38.211Z,8.55
2022-09-25T21:18:05.751Z,8.41
2022-09-25T21:20:35.837Z,8.42
2022-09-25T21:23:03.336Z,8.42
2022-09-25T21:25:30.924Z,8.39
2022-09-25T21:27:59.993Z,8.51
2022-09-25T21:30:27.412Z,8.63
2022-09-25T21:32:54.791Z,8.58
2022-09-25T21:35:22.470Z,8.67
2022-09-25T21:37:49.938Z,8.59
2022-09-25T21:40:17.401Z,8.57
2022-09-25T21:42:44.793Z,8.47
2022-09-25T21:45:13.587Z,8.65
2022-09-25T21:47:40.981Z,8.75
2022-09-25T21:50:09.333Z,8.73
2022-09-25T21:52:39.465Z,8.63
2022-09-25T21:55:08.339Z,8.62
2022-09-25T21:57:35.788Z,8.42
2022-09-25T22:00:04.078Z,8.65
2022-09-25T22:02:33.476Z,8.75
2022-09-25T22:05:03.859Z,8.96
2022-09-25T22:07:31.766Z,8.84
2022-09-25T22:09:59.457Z,8.93
2022-09-25T22:12:26.874Z,9.04
2022-09-25T22:14:54.410Z,9.24
2022-09-25T22:17:21.822Z,9.06
2022-09-25T22:19:50.615Z,9.13
2022-09-25T22:22:18.318Z,9.16
2022-09-25T22:24:45.737Z,9.28
2022-09-25T22:27:13.169Z,9.18
2022-09-25T22:29:40.791Z,9.30
2022-09-25T22:32:08.251Z,9.22
2022-09-25T22:34:35.684Z,9.18
2022-09-25T22:37:04.514Z,9.44
2022-09-25T22:39:31.950Z,9.38
2022-09-25T22:41:59.496Z,9.44
2022-09-25T22:44:26.938Z,9.30
2022-09-25T22:46:54.412Z,9.30
2022-09-25T22:49:21.818Z,9.24
2022-09-25T22:51:49.232Z,9.56
2022-09-25T22:54:18.017Z,9.37
2022-09-25T22:56:45.420Z,9.40
2022-09-25T22:59:16.035Z,9.34
2022-09-25T23:01:46.306Z,9.46
2022-09-25T23:04:15.461Z,9.45
2022-09-25T23:06:43.103Z,9.30
2022-09-25T23:09:13.347Z,9.29
2022-09-25T23:11:42.430Z,9.36
2022-09-25T23:14:14.241Z,9.68
2022-09-25T23:16:41.968Z,9.54
2022-09-25T23:19:09.574Z,9.69
2022-09-25T23:21:37.189Z,9.49
2022-09-25T23:24:06.740Z,9.67
2022-09-25T23:26:34.988Z,9.66
2022-09-25T23:29:04.307Z,9.91
2022-09-25T23:31:33.677Z,9.83
2022-09-25T23:34:01.709Z,9.94
2022-09-25T23:36:30.076Z,10.04
2022-09-25T23:38:59.950Z,9.92
2022-09-25T23:41:28.998Z,9.68
2022-09-25T23:43:56.955Z,9.96
2022-09-25T23:46:27.421Z,9.82
2022-09-25T23:48:55.467Z,9.86
2022-09-25T23:51:23.682Z,10.12
2022-09-25T23:53:51.441Z,10.29
2022-09-25T23:56:20.867Z,10.14
2022-09-25T23:58:49.116Z,10.26
